createdAt,value
2018-10-21T00:01:52.000Z,38.33
2018-10-21T00:04:20.849Z,32.70
2018-10-21T00:06:49.550Z,33.63
2018-10-21T00:09:18.428Z,33.10
2018-10-21T00:11:47.149Z,34.23
2018-10-21T00:14:15.982Z,36.23
2018-10-21T00:16:44.801Z,34.63
2018-10-21T00:19:13.523Z,35.30
2018-10-21T00:21:42.357Z,33.97
2018-10-21T00:24:11.112Z,35.07
2018-10-21T00:26:39.997Z,37.07
2018-10-21T00:29:08.855Z,36.20
2018-10-21T00:31:37.568Z,32.90
2018-10-21T00:34:06.409Z,33.70
2018-10-21T00:36:35.054Z,33.13
2018-10-21T00:39:05.781Z,32.70
2018-10-21T00:41:34.442Z,33.83
2018-10-21T00:44:03.245Z,34.63
2018-10-21T00:46:31.904Z,38.07
2018-10-21T00:49:00.753Z,36.07
2018-10-21T00:51:29.664Z,36.47
2018-10-21T00:53:58.408Z,36.30
2018-10-21T00:56:27.183Z,35.40
2018-10-21T00:58:56.092Z,38.00
2018-10-21T01:01:24.852Z,35.27
2018-10-21T01:03:53.619Z,35.53
2018-10-21T01:06:22.470Z,37.77
2018-10-21T01:08:51.212Z,39.17
2018-10-21T01:11:20.110Z,39.27
2018-10-21T01:13:48.866Z,39.30
2018-10-21T01:16:17.704Z,38.70
2018-10-21T01:18:46.378Z,38.33
2018-10-21T01:21:15.194Z,37.33
2018-10-21T01:23:43.780Z,35.40
2018-10-21T01:26:12.648Z,37.40
2018-10-21T01:28:41.393Z,40.30
2018-10-21T01:31:10.416Z,38.90
2018-10-21T01:33:39.091Z,36.53
2018-10-21T01:36:08.011Z,36.43
2018-10-21T01:38:36.941Z,35.47
2018-10-21T01:41:05.745Z,34.80
2018-10-21T01:43:34.615Z,35.83
2018-10-21T01:46:03.805Z,37.53
2018-10-21T01:48:33.030Z,35.63
2018-10-21T01:51:01.881Z,35.40
2018-10-21T01:53:30.569Z,35.90
2018-10-21T01:55:59.302Z,34.60
2018-10-21T01:58:28.129Z,35.40
2018-10-21T02:00:56.915Z,33.93
2018-10-21T02:03:25.791Z,33.40
2018-10-21T02:05:54.497Z,36.47
2018-10-21T02:08:23.199Z,35.27
2018-10-21T02:10:52.015Z,34.97
2018-10-21T02:13:20.815Z,38.57
2018-10-21T02:15:49.696Z,32.70
2018-10-21T02:18:18.451Z,37.03
2018-10-21T02:20:47.618Z,32.73
2018-10-21T02:23:16.750Z,32.67
2018-10-21T02:25:45.571Z,33.23
2018-10-21T02:28:14.489Z,32.43
2018-10-21T02:30:43.305Z,31.53
2018-10-21T02:33:11.954Z,33.77
2018-10-21T02:35:40.901Z,34.63
2018-10-21T02:38:09.495Z,32.93
2018-10-21T02:41:47.346Z,33.60
2018-10-21T02:44:18.147Z,34.07
2018-10-21T02:46:47.639Z,35.73
2018-10-21T02:49:16.997Z,33.87
2018-10-21T02:51:50.921Z,38.37
2018-10-21T02:54:27.590Z,36.17
2018-10-21T02:56:56.506Z,33.77
2018-10-21T02:59:25.648Z,33.83
2018-10-21T03:01:54.628Z,37.67
2018-10-21T03:04:23.937Z,35.63
2018-10-21T03:06:53.023Z,33.97
2018-10-21T03:09:21.887Z,35.40
2018-10-21T03:11:51.027Z,34.93
2018-10-21T03:14:19.828Z,38.13
2018-10-21T03:16:48.697Z,38.67
2018-10-21T03:19:17.424Z,35.47
2018-10-21T03:21:46.224Z,36.43
2018-10-21T03:24:15.021Z,37.13
2018-10-21T03:26:44.537Z,37.17
2018-10-21T03:29:13.334Z,36.80
2018-10-21T03:31:42.207Z,34.13
2018-10-21T03:34:11.050Z,36.97
2018-10-21T03:36:39.923Z,36.07
2018-10-21T03:39:09.966Z,35.90
2018-10-21T03:41:39.140Z,39.50
2018-10-21T03:44:07.899Z,41.53
2018-10-21T03:46:36.713Z,38.97
2018-10-21T03:49:05.395Z,37.10
2018-10-21T03:51:34.611Z,38.47
2018-10-21T03:54:03.361Z,38.80
2018-10-21T03:56:32.249Z,37.90
2018-10-21T03:59:01.045Z,40.50
2018-10-21T04:01:29.774Z,41.93
2018-10-21T04:03:58.943Z,36.23
2018-10-21T04:06:27.594Z,37.50
2018-10-21T04:08:56.533Z,38.50
2018-10-21T04:11:25.416Z,35.10
2018-10-21T04:13:54.291Z,41.03
2018-10-21T04:16:23.048Z,36.90
2018-10-21T04:18:52.085Z,34.77
2018-10-21T04:21:20.952Z,38.30
2018-10-21T04:23:49.968Z,39.40
2018-10-21T04:26:18.731Z,37.47
2018-10-21T04:28:47.582Z,37.07
2018-10-21T04:31:16.351Z,40.27
2018-10-21T04:33:45.976Z,40.40
2018-10-21T04:36:19.962Z,40.53
2018-10-21T04:40:17.061Z,37.83
2018-10-21T04:42:46.569Z,41.20
2018-10-21T04:45:16.828Z,37.93
2018-10-21T04:47:45.753Z,37.10
2018-10-21T04:50:14.632Z,37.13
2018-10-21T04:52:43.755Z,39.77
2018-10-21T04:55:13.638Z,41.83
2018-10-21T04:57:44.854Z,44.67
2018-10-21T05:00:15.908Z,37.37
2018-10-21T05:02:44.688Z,36.20
2018-10-21T05:05:14.587Z,39.20
2018-10-21T05:07:43.526Z,35.43
2018-10-21T05:10:29.362Z,38.00
2018-10-21T05:12:58.384Z,37.50
2018-10-21T05:15:28.350Z,35.93
2018-10-21T05:17:57.445Z,39.07
2018-10-21T05:20:26.142Z,38.33
2018-10-21T05:22:55.051Z,38.97
2018-10-21T05:25:24.027Z,37.70
2018-10-21T05:27:52.841Z,39.50
2018-10-21T05:30:21.729Z,41.10
2018-10-21T05:32:50.691Z,36.90
2018-10-21T05:35:20.048Z,35.80
2018-10-21T05:37:48.872Z,37.05
2018-10-21T05:40:19.023Z,37.40
2018-10-21T05:42:48.321Z,37.33
2018-10-21T05:45:17.257Z,35.00
2018-10-21T05:47:46.121Z,39.30
2018-10-21T05:50:15.719Z,34.90
2018-10-21T05:52:44.835Z,34.80
2018-10-21T05:55:14.192Z,39.10
2018-10-21T05:57:43.344Z,35.97
2018-10-21T06:00:15.421Z,34.23
2018-10-21T06:02:44.241Z,42.27
2018-10-21T06:05:28.799Z,35.63
2018-10-21T06:07:57.515Z,38.47
2018-10-21T06:10:26.352Z,36.97
2018-10-21T06:12:55.377Z,38.87
2018-10-21T06:15:24.186Z,38.83
2018-10-21T06:17:52.970Z,39.30
2018-10-21T06:20:31.152Z,36.97
2018-10-21T06:22:59.992Z,35.63
2018-10-21T06:25:28.872Z,38.73
2018-10-21T06:27:57.622Z,36.23
2018-10-21T06:30:26.424Z,39.37
2018-10-21T06:32:55.417Z,39.03
2018-10-21T06:35:24.194Z,33.77
2018-10-21T06:37:53.036Z,33.97
2018-10-21T06:40:21.853Z,37.07
2018-10-21T06:42:50.632Z,37.80
2018-10-21T06:45:19.532Z,33.30
2018-10-21T06:47:48.565Z,31.63
2018-10-21T06:50:18.677Z,28.50
2018-10-21T06:52:48.034Z,29.37
2018-10-21T06:55:18.678Z,29.30
2018-10-21T06:57:48.698Z,29.40
2018-10-21T07:00:17.616Z,33.13
2018-10-21T07:02:46.378Z,33.10
2018-10-21T07:05:26.427Z,28.73
2018-10-21T07:07:55.340Z,28.73
2018-10-21T07:10:24.235Z,27.50
2018-10-21T07:12:53.016Z,27.37
2018-10-21T07:15:21.869Z,30.13
2018-10-21T07:17:50.622Z,26.33
2018-10-21T07:20:19.445Z,31.33
2018-10-21T07:22:48.074Z,28.97
2018-10-21T07:25:16.856Z,25.70
2018-10-21T07:27:45.673Z,25.33
2018-10-21T07:30:14.315Z,25.37
2018-10-21T07:32:43.319Z,28.83
2018-10-21T07:35:13.891Z,24.90
2018-10-21T07:37:43.428Z,23.53
2018-10-21T07:40:12.917Z,24.37
2018-10-21T07:42:41.933Z,25.20
2018-10-21T07:45:10.769Z,22.67
2018-10-21T07:47:39.718Z,23.87
2018-10-21T07:50:08.409Z,24.77
2018-10-21T07:52:37.205Z,23.57
2018-10-21T07:55:06.018Z,23.13
2018-10-21T07:57:34.868Z,25.50
2018-10-21T08:00:03.607Z,21.53
2018-10-21T08:02:32.537Z,21.30
2018-10-21T08:05:01.243Z,24.43
2018-10-21T08:07:41.705Z,21.07
2018-10-21T08:10:10.393Z,22.70
2018-10-21T08:12:39.276Z,22.13
2018-10-21T08:15:07.990Z,21.47
2018-10-21T08:17:36.695Z,20.50
2018-10-21T08:20:05.886Z,22.67
2018-10-21T08:22:34.581Z,22.33
2018-10-21T08:25:03.231Z,24.47
2018-10-21T08:27:31.813Z,21.60
2018-10-21T08:30:00.500Z,22.77
2018-10-21T08:32:29.434Z,24.83
2018-10-21T08:34:58.032Z,22.43
2018-10-21T08:37:26.834Z,23.40
2018-10-21T08:39:55.637Z,23.73
2018-10-21T08:42:24.471Z,26.13
2018-10-21T08:44:53.027Z,21.57
2018-10-21T08:47:21.800Z,21.85
2018-10-21T08:49:50.713Z,21.73
2018-10-21T08:52:19.537Z,21.77
2018-10-21T08:54:48.280Z,20.77
2018-10-21T08:57:17.081Z,22.93
2018-10-21T08:59:45.941Z,23.77
2018-10-21T09:02:14.677Z,20.73
2018-10-21T09:04:43.374Z,20.43
2018-10-21T09:07:12.243Z,22.07
2018-10-21T09:09:41.199Z,23.57
2018-10-21T09:12:10.175Z,21.27
2018-10-21T09:14:38.977Z,23.33
2018-10-21T09:17:07.713Z,21.13
2018-10-21T09:19:36.494Z,20.90
2018-10-21T09:22:05.185Z,21.40
2018-10-21T09:24:33.918Z,21.10
2018-10-21T09:27:02.542Z,21.93
2018-10-21T09:29:31.442Z,22.27
2018-10-21T09:31:59.948Z,20.50
2018-10-21T09:34:28.751Z,24.43
2018-10-21T09:36:57.529Z,21.83
2018-10-21T09:39:26.361Z,21.87
2018-10-21T09:41:55.019Z,20.93
2018-10-21T09:44:23.900Z,21.03
2018-10-21T09:46:52.695Z,19.97
2018-10-21T09:49:21.548Z,22.13
2018-10-21T09:51:50.243Z,21.27
2018-10-21T09:54:19.099Z,19.73
2018-10-21T09:56:47.805Z,20.07
2018-10-21T09:59:16.458Z,19.37
2018-10-21T10:01:50.269Z,23.00
2018-10-21T10:04:19.148Z,20.57
2018-10-21T10:06:47.979Z,20.20
2018-10-21T10:09:16.855Z,20.87
2018-10-21T10:11:45.541Z,19.23
2018-10-21T10:14:15.302Z,20.33
2018-10-21T10:16:44.069Z,21.80
2018-10-21T10:19:12.941Z,18.40
2018-10-21T10:21:41.563Z,18.03
2018-10-21T10:24:10.443Z,17.23
2018-10-21T10:26:39.245Z,20.03
2018-10-21T10:29:08.029Z,19.80
2018-10-21T10:31:36.831Z,21.53
2018-10-21T10:34:05.475Z,20.40
2018-10-21T10:36:34.280Z,19.00
2018-10-21T10:39:03.272Z,18.03
2018-10-21T10:41:31.998Z,19.37
2018-10-21T10:44:00.703Z,20.63
2018-10-21T10:46:29.644Z,18.27
2018-10-21T10:48:58.467Z,19.90
2018-10-21T10:51:27.302Z,17.20
2018-10-21T10:53:56.233Z,20.20
2018-10-21T10:56:25.209Z,19.83
2018-10-21T10:58:54.010Z,18.83
2018-10-21T11:01:22.828Z,18.07
2018-10-21T11:03:51.669Z,21.03
2018-10-21T11:06:20.558Z,18.97
2018-10-21T11:08:49.418Z,20.97
2018-10-21T11:11:18.159Z,18.93
2018-10-21T11:13:46.833Z,19.23
2018-10-21T11:16:15.731Z,21.37
2018-10-21T11:18:44.483Z,20.20
2018-10-21T11:21:13.111Z,23.37
2018-10-21T11:23:41.899Z,22.10
2018-10-21T11:26:10.717Z,22.03
2018-10-21T11:28:39.547Z,19.33
2018-10-21T11:31:08.368Z,19.40
2018-10-21T11:33:37.068Z,20.53
2018-10-21T11:36:05.997Z,19.40
2018-10-21T11:38:34.814Z,22.50
2018-10-21T11:41:03.484Z,22.00
2018-10-21T11:43:32.150Z,20.00
2018-10-21T11:46:00.919Z,19.93
2018-10-21T11:48:29.592Z,21.37
2018-10-21T11:50:58.276Z,21.37
2018-10-21T11:53:27.010Z,21.03
2018-10-21T11:55:55.771Z,22.27
2018-10-21T11:58:24.491Z,19.20
2018-10-21T12:00:53.343Z,20.20
2018-10-21T12:03:22.267Z,19.53
2018-10-21T12:05:50.801Z,22.10
2018-10-21T12:08:19.467Z,20.60
2018-10-21T12:10:48.202Z,20.67
2018-10-21T12:13:16.978Z,19.50
2018-10-21T12:15:45.651Z,20.00
2018-10-21T12:18:14.260Z,19.70
2018-10-21T12:20:43.019Z,19.67
2018-10-21T12:23:11.901Z,23.63
2018-10-21T12:25:40.661Z,18.83
2018-10-21T12:28:09.327Z,20.47
2018-10-21T12:30:38.112Z,20.20
2018-10-21T12:33:07.033Z,22.10
2018-10-21T12:35:35.720Z,19.37
2018-10-21T12:38:04.544Z,19.37
2018-10-21T12:40:33.213Z,19.70
2018-10-21T12:43:01.951Z,20.93
2018-10-21T12:45:30.767Z,72.33
2018-10-21T12:47:59.375Z,19.63
2018-10-21T12:50:28.031Z,19.47
2018-10-21T12:52:56.753Z,20.97
2018-10-21T12:55:25.543Z,21.27
2018-10-21T12:57:54.222Z,20.60
2018-10-21T13:00:23.243Z,29.93
2018-10-21T13:02:52.062Z,19.50
2018-10-21T13:05:20.818Z,21.03
2018-10-21T13:07:49.524Z,23.37
2018-10-21T13:10:18.445Z,20.33
2018-10-21T13:12:47.243Z,19.87
2018-10-21T13:15:15.993Z,19.30
2018-10-21T13:17:44.871Z,19.23
2018-10-21T13:20:13.627Z,21.10
2018-10-21T13:22:42.345Z,20.43
2018-10-21T13:25:11.161Z,20.03
2018-10-21T13:27:40.058Z,21.60
2018-10-21T13:30:08.883Z,20.77
2018-10-21T13:32:37.699Z,28.57
2018-10-21T13:35:06.536Z,19.73
2018-10-21T13:37:35.355Z,20.37
2018-10-21T13:40:04.262Z,19.17
2018-10-21T13:42:33.180Z,19.87
2018-10-21T13:45:01.852Z,23.10
2018-10-21T13:47:31.450Z,21.53
2018-10-21T13:50:00.140Z,20.20
2018-10-21T13:52:29.154Z,21.57
2018-10-21T13:54:58.092Z,22.13
2018-10-21T13:57:26.940Z,25.30
2018-10-21T13:59:56.009Z,20.33
2018-10-21T14:02:24.820Z,24.87
2018-10-21T14:04:53.776Z,23.10
2018-10-21T14:07:22.776Z,27.40
2018-10-21T14:09:51.419Z,26.83
2018-10-21T14:12:20.248Z,24.50
2018-10-21T14:14:49.128Z,24.63
2018-10-21T14:17:17.880Z,24.97
2018-10-21T14:19:46.737Z,23.93
2018-10-21T14:22:15.617Z,31.03
2018-10-21T14:24:44.354Z,23.77
2018-10-21T14:27:13.167Z,24.30
2018-10-21T14:29:42.174Z,23.70
2018-10-21T14:32:10.851Z,24.20
2018-10-21T14:34:39.663Z,23.47
2018-10-21T14:37:08.410Z,27.67
2018-10-21T14:39:37.065Z,24.20
2018-10-21T14:42:05.892Z,24.73
2018-10-21T14:44:34.591Z,27.87
2018-10-21T14:47:03.299Z,24.13
2018-10-21T14:49:32.047Z,27.63
2018-10-21T14:52:00.854Z,28.10
2018-10-21T14:54:29.672Z,25.17
2018-10-21T14:56:58.764Z,25.77
2018-10-21T14:59:27.563Z,24.87
2018-10-21T15:01:57.105Z,24.60
2018-10-21T15:04:25.918Z,25.93
2018-10-21T15:06:55.916Z,23.47
2018-10-21T15:09:26.810Z,25.73
2018-10-21T15:11:56.421Z,26.87
2018-10-21T15:14:25.220Z,31.03
2018-10-21T15:16:55.832Z,25.97
2018-10-21T15:19:24.756Z,24.63
2018-10-21T15:21:53.905Z,23.37
2018-10-21T15:24:22.541Z,28.83
2018-10-21T15:26:51.346Z,30.63
2018-10-21T15:29:20.639Z,34.93
2018-10-21T15:31:49.484Z,26.50
2018-10-21T15:34:18.558Z,33.53
2018-10-21T15:36:47.198Z,26.30
2018-10-21T15:39:16.020Z,28.43
2018-10-21T15:41:44.784Z,26.47
2018-10-21T15:44:13.760Z,31.60
2018-10-21T15:46:42.490Z,25.90
2018-10-21T15:49:11.261Z,27.10
2018-10-21T15:51:40.074Z,26.70
2018-10-21T15:54:09.153Z,26.33
2018-10-21T15:56:38.223Z,28.93
2018-10-21T15:59:08.120Z,22.60
2018-10-21T16:01:36.732Z,22.03
2018-10-21T16:04:05.723Z,29.67
2018-10-21T16:06:34.427Z,23.70
2018-10-21T16:09:04.142Z,23.77
2018-10-21T16:11:32.862Z,25.30
2018-10-21T16:14:01.773Z,20.63
2018-10-21T16:16:30.582Z,20.20
2018-10-21T16:18:59.324Z,18.57
2018-10-21T16:21:28.043Z,21.23
2018-10-21T16:23:56.788Z,17.47
2018-10-21T16:26:25.609Z,16.83
2018-10-21T16:28:54.429Z,19.07
2018-10-21T16:31:23.275Z,18.47
2018-10-21T16:33:51.968Z,19.80
2018-10-21T16:36:21.452Z,22.87
2018-10-21T16:38:50.500Z,18.70
2018-10-21T16:41:20.321Z,19.90
2018-10-21T16:43:49.200Z,22.57
2018-10-21T16:46:17.990Z,19.10
2018-10-21T16:48:46.650Z,21.13
2018-10-21T16:51:15.248Z,23.53
2018-10-21T16:53:44.092Z,21.07
2018-10-21T16:56:12.814Z,19.73
2018-10-21T16:58:41.573Z,29.47
2018-10-21T17:01:10.411Z,30.07
2018-10-21T17:03:39.297Z,32.10
2018-10-21T17:06:07.965Z,29.37
2018-10-21T17:08:36.704Z,29.00
2018-10-21T17:11:05.675Z,32.10
2018-10-21T17:13:34.312Z,30.07
2018-10-21T17:16:03.431Z,23.17
2018-10-21T17:18:32.244Z,25.83
2018-10-21T17:21:01.165Z,31.13
2018-10-21T17:23:30.578Z,25.07
2018-10-21T17:25:59.752Z,24.90
2018-10-21T17:28:28.662Z,22.17
2018-10-21T17:30:58.246Z,23.73
2018-10-21T17:33:26.955Z,28.20
2018-10-21T17:35:55.604Z,28.77
2018-10-21T17:38:24.694Z,26.10
2018-10-21T17:40:53.807Z,23.43
2018-10-21T17:43:22.870Z,21.13
2018-10-21T17:45:51.659Z,21.10
2018-10-21T17:48:20.472Z,24.00
2018-10-21T17:50:49.260Z,22.77
2018-10-21T17:53:19.200Z,22.70
2018-10-21T17:55:47.938Z,18.67
2018-10-21T17:58:17.270Z,23.23
2018-10-21T18:00:46.260Z,21.77
2018-10-21T18:03:14.985Z,22.67
2018-10-21T18:05:43.701Z,18.40
2018-10-21T18:08:12.540Z,18.13
2018-10-21T18:10:41.371Z,27.20
2018-10-21T18:13:10.202Z,20.07
2018-10-21T18:15:39.070Z,20.67
2018-10-21T18:18:08.228Z,17.07
2018-10-21T18:20:36.805Z,19.27
2018-10-21T18:23:05.652Z,19.80
2018-10-21T18:25:34.370Z,17.73
2018-10-21T18:28:03.232Z,21.67
2018-10-21T18:30:31.802Z,15.70
2018-10-21T18:33:00.452Z,17.13
2018-10-21T18:35:29.265Z,15.77
2018-10-21T18:37:57.973Z,13.77
2018-10-21T18:40:26.844Z,17.57
2018-10-21T18:42:55.507Z,16.03
2018-10-21T18:45:24.169Z,10.83
2018-10-21T18:47:52.803Z,12.63
2018-10-21T18:50:21.515Z,14.03
2018-10-21T18:52:50.153Z,16.07
2018-10-21T18:55:19.076Z,13.30
2018-10-21T18:57:47.630Z,11.63
2018-10-21T19:00:18.039Z,12.03
2018-10-21T19:02:47.167Z,12.40
2018-10-21T19:05:16.264Z,15.77
2018-10-21T19:07:45.055Z,15.90
2018-10-21T19:10:14.952Z,14.07
2018-10-21T19:12:43.831Z,13.27
2018-10-21T19:15:13.389Z,14.33
2018-10-21T19:17:42.314Z,13.63
2018-10-21T19:20:13.847Z,15.87
2018-10-21T19:22:42.785Z,12.67
2018-10-21T19:25:13.064Z,17.57
2018-10-21T19:27:42.349Z,14.10
2018-10-21T19:30:12.705Z,12.80
2018-10-21T19:32:43.275Z,12.90
2018-10-21T19:35:13.697Z,16.67
2018-10-21T19:37:43.528Z,16.03
2018-10-21T19:40:13.764Z,13.17
2018-10-21T19:42:43.327Z,12.47
2018-10-21T19:45:13.031Z,12.57
2018-10-21T19:47:42.204Z,13.13
2018-10-21T19:50:12.649Z,16.30
2018-10-21T19:52:42.486Z,13.73
2018-10-21T19:55:12.001Z,14.97
2018-10-21T19:57:41.191Z,14.30
2018-10-21T20:00:13.318Z,13.03
2018-10-21T20:02:43.078Z,22.93
2018-10-21T20:05:14.441Z,17.10
2018-10-21T20:07:43.743Z,19.17
2018-10-21T20:10:13.856Z,13.83
2018-10-21T20:12:42.726Z,13.30
2018-10-21T20:15:12.648Z,11.73
2018-10-21T20:17:41.748Z,16.40
2018-10-21T20:20:11.569Z,13.67
2018-10-21T20:22:40.588Z,12.60
2018-10-21T20:25:10.828Z,12.10
2018-10-21T20:27:40.052Z,17.23
2018-10-21T20:30:10.911Z,12.63
2018-10-21T20:32:40.476Z,14.10
2018-10-21T20:35:10.998Z,12.70
2018-10-21T20:37:40.367Z,14.30
2018-10-21T20:40:10.096Z,12.67
2018-10-21T20:42:39.373Z,13.50
2018-10-21T20:45:10.246Z,13.10
2018-10-21T20:47:39.705Z,13.13
2018-10-21T20:50:08.802Z,13.33
2018-10-21T20:52:38.819Z,18.63
2018-10-21T20:55:08.369Z,14.43
2018-10-21T20:57:37.093Z,13.97
2018-10-21T21:00:06.170Z,15.23
2018-10-21T21:02:34.918Z,14.70
2018-10-21T21:05:03.746Z,12.90
2018-10-21T21:07:32.836Z,15.20
2018-10-21T21:10:01.905Z,20.82
2018-10-21T21:12:30.872Z,14.90
2018-10-21T21:15:00.818Z,17.03
2018-10-21T21:17:29.658Z,17.37
2018-10-21T21:19:58.396Z,15.50
2018-10-21T21:22:27.201Z,12.77
2018-10-21T21:24:56.180Z,17.53
2018-10-21T21:27:24.881Z,19.90
2018-10-21T21:29:53.705Z,18.73
2018-10-21T21:32:24.113Z,16.93
2018-10-21T21:34:52.900Z,21.20
2018-10-21T21:37:22.018Z,17.50
2018-10-21T21:39:50.851Z,17.27
2018-10-21T21:42:19.981Z,17.00
2018-10-21T21:44:48.777Z,17.43
2018-10-21T21:47:17.523Z,15.60
2018-10-21T21:49:46.421Z,16.07
2018-10-21T21:52:15.215Z,18.57
2018-10-21T21:54:44.191Z,16.00
2018-10-21T21:57:13.582Z,17.63
2018-10-21T21:59:42.458Z,18.93
2018-10-21T22:02:11.297Z,14.90
2018-10-21T22:04:39.802Z,17.40
2018-10-21T22:07:08.693Z,14.97
2018-10-21T22:09:37.537Z,17.87
2018-10-21T22:12:06.459Z,28.10
2018-10-21T22:14:36.143Z,23.67
2018-10-21T22:17:05.037Z,19.43
2018-10-21T22:19:33.900Z,23.73
2018-10-21T22:22:02.617Z,24.60
2018-10-21T22:24:31.402Z,23.40
2018-10-21T22:27:00.409Z,22.30
2018-10-21T22:29:29.187Z,22.83
2018-10-21T22:31:57.749Z,21.20
2018-10-21T22:34:26.593Z,22.20
2018-10-21T22:36:55.344Z,18.87
2018-10-21T22:39:24.167Z,23.93
2018-10-21T22:41:52.888Z,19.77
2018-10-21T22:44:21.819Z,15.47
2018-10-21T22:46:50.662Z,14.93
2018-10-21T22:49:19.362Z,15.30
2018-10-21T22:51:48.281Z,10.10
2018-10-21T22:54:17.320Z,10.80
2018-10-21T22:56:45.849Z,9.47
2018-10-21T22:59:14.735Z,9.40
2018-10-21T23:01:43.592Z,8.20
2018-10-21T23:04:12.469Z,9.37
2018-10-21T23:06:41.299Z,6.93
2018-10-21T23:09:11.187Z,7.63
2018-10-21T23:11:40.002Z,8.37
2018-10-21T23:14:08.630Z,8.33
2018-10-21T23:16:37.485Z,7.83
2018-10-21T23:19:17.227Z,8.50
2018-10-21T23:21:46.118Z,9.77
2018-10-21T23:24:15.058Z,13.87
2018-10-21T23:26:43.894Z,11.63
2018-10-21T23:29:12.746Z,11.07
2018-10-21T23:31:41.804Z,12.40
2018-10-21T23:34:10.552Z,12.50
2018-10-21T23:36:39.278Z,13.63
2018-10-21T23:39:08.199Z,19.33
2018-10-21T23:41:36.876Z,17.40
2018-10-21T23:44:05.830Z,22.63
2018-10-21T23:46:34.808Z,16.23
2018-10-21T23:49:03.854Z,16.27
2018-10-21T23:51:32.785Z,15.57
2018-10-21T23:54:01.628Z,15.97
2018-10-21T23:56:30.737Z,15.17
2018-10-21T23:58:59.806Z,14.93
